sensor_id;sensor_type;location;lat;lon;timestamp;pressure;altitude;pressure_sealevel;temperature
31528;BMP280;10206;48.012;10.030;2023-07-09T00:01:13;95295.72;;;20.20
31528;BMP280;10206;48.012;10.030;2023-07-09T00:03:39;95299.22;;;20.20
31528;BMP280;10206;48.012;10.030;2023-07-09T00:06:08;95296.25;;;20.16
31528;BMP280;10206;48.012;10.030;2023-07-09T00:08:34;95304.91;;;20.24
31528;BMP280;10206;48.012;10.030;2023-07-09T00:11:00;95302.16;;;20.24
31528;BMP280;10206;48.012;10.030;2023-07-09T00:13:27;95313.56;;;20.17
31528;BMP280;10206;48.012;10.030;2023-07-09T00:15:59;95311.97;;;20.27
31528;BMP280;10206;48.012;10.030;2023-07-09T00:18:26;95313.38;;;20.13
31528;BMP280;10206;48.012;10.030;2023-07-09T00:20:52;95311.84;;;20.10
31528;BMP280;10206;48.012;10.030;2023-07-09T00:23:18;95315.25;;;20.08
31528;BMP280;10206;48.012;10.030;2023-07-09T00:25:46;95319.63;;;20.13
31528;BMP280;10206;48.012;10.030;2023-07-09T00:28:16;95316.59;;;20.07
31528;BMP280;10206;48.012;10.030;2023-07-09T00:30:46;95323.34;;;20.04
31528;BMP280;10206;48.012;10.030;2023-07-09T00:33:14;95334.03;;;19.96
31528;BMP280;10206;48.012;10.030;2023-07-09T00:35:44;95321.38;;;19.91
31528;BMP280;10206;48.012;10.030;2023-07-09T00:38:24;95323.41;;;19.91
31528;BMP280;10206;48.012;10.030;2023-07-09T00:41:01;95325.06;;;19.82
31528;BMP280;10206;48.012;10.030;2023-07-09T00:43:32;95317.38;;;19.81
31528;BMP280;10206;48.012;10.030;2023-07-09T00:49:01;95324.13;;;19.91
31528;BMP280;10206;48.012;10.030;2023-07-09T00:51:31;95320.00;;;19.92
31528;BMP280;10206;48.012;10.030;2023-07-09T00:54:03;95321.97;;;19.90
31528;BMP280;10206;48.012;10.030;2023-07-09T00:56:45;95323.69;;;19.83
31528;BMP280;10206;48.012;10.030;2023-07-09T00:59:15;95331.00;;;19.77
31528;BMP280;10206;48.012;10.030;2023-07-09T01:01:44;95324.44;;;19.70
31528;BMP280;10206;48.012;10.030;2023-07-09T01:04:13;95327.13;;;19.68
31528;BMP280;10206;48.012;10.030;2023-07-09T01:06:46;95324.97;;;19.67
31528;BMP280;10206;48.012;10.030;2023-07-09T01:09:13;95322.69;;;19.77
31528;BMP280;10206;48.012;10.030;2023-07-09T01:11:39;95327.63;;;19.78
31528;BMP280;10206;48.012;10.030;2023-07-09T01:14:08;95321.28;;;19.76
31528;BMP280;10206;48.012;10.030;2023-07-09T01:16:38;95329.09;;;19.66
31528;BMP280;10206;48.012;10.030;2023-07-09T01:19:05;95333.59;;;19.59
31528;BMP280;10206;48.012;10.030;2023-07-09T01:21:31;95330.00;;;19.57
31528;BMP280;10206;48.012;10.030;2023-07-09T01:23:58;95327.66;;;19.65
31528;BMP280;10206;48.012;10.030;2023-07-09T01:26:27;95329.69;;;19.51
31528;BMP280;10206;48.012;10.030;2023-07-09T01:28:54;95320.88;;;19.54
31528;BMP280;10206;48.012;10.030;2023-07-09T01:31:20;95327.75;;;19.53
31528;BMP280;10206;48.012;10.030;2023-07-09T01:33:48;95324.88;;;19.51
31528;BMP280;10206;48.012;10.030;2023-07-09T01:36:18;95331.88;;;19.52
31528;BMP280;10206;48.012;10.030;2023-07-09T01:38:48;95338.50;;;19.47
31528;BMP280;10206;48.012;10.030;2023-07-09T01:41:15;95331.75;;;19.50
31528;BMP280;10206;48.012;10.030;2023-07-09T01:43:43;95336.56;;;19.36
31528;BMP280;10206;48.012;10.030;2023-07-09T01:46:10;95333.28;;;19.53
31528;BMP280;10206;48.012;10.030;2023-07-09T01:48:38;95328.78;;;19.46
31528;BMP280;10206;48.012;10.030;2023-07-09T01:51:14;95329.69;;;19.51
31528;BMP280;10206;48.012;10.030;2023-07-09T01:53:42;95334.63;;;19.52
31528;BMP280;10206;48.012;10.030;2023-07-09T01:56:10;95331.44;;;19.44
31528;BMP280;10206;48.012;10.030;2023-07-09T01:58:37;95339.13;;;19.46
31528;BMP280;10206;48.012;10.030;2023-07-09T02:01:07;95333.91;;;19.38
31528;BMP280;10206;48.012;10.030;2023-07-09T02:03:34;95332.47;;;19.37
31528;BMP280;10206;48.012;10.030;2023-07-09T02:06:00;95338.84;;;19.26
31528;BMP280;10206;48.012;10.030;2023-07-09T02:08:28;95337.50;;;19.27
31528;BMP280;10206;48.012;10.030;2023-07-09T02:10:54;95338.50;;;19.20
31528;BMP280;10206;48.012;10.030;2023-07-09T02:13:20;95337.81;;;19.33
31528;BMP280;10206;48.012;10.030;2023-07-09T02:15:46;95337.09;;;19.32
31528;BMP280;10206;48.012;10.030;2023-07-09T02:18:16;95334.03;;;19.26
31528;BMP280;10206;48.012;10.030;2023-07-09T02:20:42;95337.09;;;19.32
31528;BMP280;10206;48.012;10.030;2023-07-09T02:23:08;95330.44;;;19.24
31528;BMP280;10206;48.012;10.030;2023-07-09T02:25:34;95333.19;;;19.24
31528;BMP280;10206;48.012;10.030;2023-07-09T02:28:01;95334.81;;;19.29
31528;BMP280;10206;48.012;10.030;2023-07-09T02:30:27;95328.34;;;19.24
31528;BMP280;10206;48.012;10.030;2023-07-09T02:32:53;95332.69;;;19.27
31528;BMP280;10206;48.012;10.030;2023-07-09T02:35:20;95332.06;;;19.29
31528;BMP280;10206;48.012;10.030;2023-07-09T02:37:47;95328.06;;;19.32
31528;BMP280;10206;48.012;10.030;2023-07-09T02:40:14;95329.28;;;19.15
31528;BMP280;10206;48.012;10.030;2023-07-09T02:42:41;95331.03;;;19.09
31528;BMP280;10206;48.012;10.030;2023-07-09T02:45:08;95322.50;;;19.05
31528;BMP280;10206;48.012;10.030;2023-07-09T02:47:34;95323.22;;;19.05
31528;BMP280;10206;48.012;10.030;2023-07-09T02:50:00;95330.09;;;19.04
31528;BMP280;10206;48.012;10.030;2023-07-09T02:52:27;95339.00;;;19.03
31528;BMP280;10206;48.012;10.030;2023-07-09T02:54:53;95339.91;;;18.94
31528;BMP280;10206;48.012;10.030;2023-07-09T02:57:19;95348.19;;;18.94
31528;BMP280;10206;48.012;10.030;2023-07-09T02:59:45;95348.78;;;18.92
31528;BMP280;10206;48.012;10.030;2023-07-09T03:02:11;95349.94;;;19.01
31528;BMP280;10206;48.012;10.030;2023-07-09T03:04:37;95344.53;;;19.03
31528;BMP280;10206;48.012;10.030;2023-07-09T03:07:04;95354.69;;;19.12
31528;BMP280;10206;48.012;10.030;2023-07-09T03:09:30;95354.16;;;19.02
31528;BMP280;10206;48.012;10.030;2023-07-09T03:11:56;95344.53;;;19.03
31528;BMP280;10206;48.012;10.030;2023-07-09T03:14:22;95346.69;;;19.04
31528;BMP280;10206;48.012;10.030;2023-07-09T03:16:49;95347.63;;;19.09
31528;BMP280;10206;48.012;10.030;2023-07-09T03:19:15;95350.28;;;19.07
31528;BMP280;10206;48.012;10.030;2023-07-09T03:21:41;95356.81;;;19.00
31528;BMP280;10206;48.012;10.030;2023-07-09T03:24:07;95349.22;;;19.00
31528;BMP280;10206;48.012;10.030;2023-07-09T03:26:34;95351.50;;;19.04
31528;BMP280;10206;48.012;10.030;2023-07-09T03:29:01;95356.75;;;19.11
31528;BMP280;10206;48.012;10.030;2023-07-09T03:31:27;95357.03;;;19.04
31528;BMP280;10206;48.012;10.030;2023-07-09T03:33:53;95347.84;;;19.13
31528;BMP280;10206;48.012;10.030;2023-07-09T03:36:20;95349.47;;;19.18
31528;BMP280;10206;48.012;10.030;2023-07-09T03:38:47;95359.19;;;19.19
31528;BMP280;10206;48.012;10.030;2023-07-09T03:41:13;95355.84;;;19.20
31528;BMP280;10206;48.012;10.030;2023-07-09T03:43:39;95360.44;;;19.29
31528;BMP280;10206;48.012;10.030;2023-07-09T03:46:05;95359.72;;;19.29
31528;BMP280;10206;48.012;10.030;2023-07-09T03:48:31;95358.69;;;19.36
31528;BMP280;10206;48.012;10.030;2023-07-09T03:50:57;95368.63;;;19.41
31528;BMP280;10206;48.012;10.030;2023-07-09T03:53:23;95364.75;;;19.46
31528;BMP280;10206;48.012;10.030;2023-07-09T03:55:54;95366.00;;;19.43
31528;BMP280;10206;48.012;10.030;2023-07-09T03:58:21;95360.88;;;19.51
31528;BMP280;10206;48.012;10.030;2023-07-09T04:00:47;95365.28;;;19.56
31528;BMP280;10206;48.012;10.030;2023-07-09T04:03:14;95365.16;;;19.54
31528;BMP280;10206;48.012;10.030;2023-07-09T04:05:40;95364.44;;;19.67
31528;BMP280;10206;48.012;10.030;2023-07-09T04:08:06;95370.41;;;19.75
31528;BMP280;10206;48.012;10.030;2023-07-09T04:10:32;95366.47;;;19.80
31528;BMP280;10206;48.012;10.030;2023-07-09T04:12:58;95371.41;;;19.95
31528;BMP280;10206;48.012;10.030;2023-07-09T04:15:24;95371.13;;;20.18
31528;BMP280;10206;48.012;10.030;2023-07-09T04:17:51;95370.94;;;20.43
31528;BMP280;10206;48.012;10.030;2023-07-09T04:20:17;95365.63;;;20.63
31528;BMP280;10206;48.012;10.030;2023-07-09T04:22:44;95359.78;;;20.86
31528;BMP280;10206;48.012;10.030;2023-07-09T04:25:11;95370.06;;;21.46
31528;BMP280;10206;48.012;10.030;2023-07-09T04:27:38;95373.22;;;22.95
31528;BMP280;10206;48.012;10.030;2023-07-09T04:30:09;95381.72;;;23.99
31528;BMP280;10206;48.012;10.030;2023-07-09T04:32:36;95380.06;;;24.56
31528;BMP280;10206;48.012;10.030;2023-07-09T04:35:03;95370.06;;;24.49
31528;BMP280;10206;48.012;10.030;2023-07-09T04:37:32;95379.81;;;24.95
31528;BMP280;10206;48.012;10.030;2023-07-09T04:39:59;95381.88;;;25.44
31528;BMP280;10206;48.012;10.030;2023-07-09T04:42:25;95382.03;;;25.25
31528;BMP280;10206;48.012;10.030;2023-07-09T04:44:51;95382.72;;;24.99
31528;BMP280;10206;48.012;10.030;2023-07-09T04:47:17;95379.88;;;24.97
31528;BMP280;10206;48.012;10.030;2023-07-09T04:49:43;95379.25;;;24.09
31528;BMP280;10206;48.012;10.030;2023-07-09T04:52:09;95383.38;;;24.29
31528;BMP280;10206;48.012;10.030;2023-07-09T04:54:41;95374.41;;;24.78
31528;BMP280;10206;48.012;10.030;2023-07-09T04:57:10;95378.34;;;24.69
31528;BMP280;10206;48.012;10.030;2023-07-09T04:59:37;95384.31;;;24.36
31528;BMP280;10206;48.012;10.030;2023-07-09T05:02:03;95378.50;;;24.98
31528;BMP280;10206;48.012;10.030;2023-07-09T05:04:30;95379.88;;;24.97
31528;BMP280;10206;48.012;10.030;2023-07-09T05:06:57;95383.44;;;25.26
31528;BMP280;10206;48.012;10.030;2023-07-09T05:09:24;95381.72;;;24.89
31528;BMP280;10206;48.012;10.030;2023-07-09T05:11:50;95371.38;;;24.93
31528;BMP280;10206;48.012;10.030;2023-07-09T05:14:17;95381.72;;;25.66
31528;BMP280;10206;48.012;10.030;2023-07-09T05:16:44;95375.59;;;25.46
31528;BMP280;10206;48.012;10.030;2023-07-09T05:19:11;95374.09;;;26.25
31528;BMP280;10206;48.012;10.030;2023-07-09T05:21:38;95375.75;;;26.68
31528;BMP280;10206;48.012;10.030;2023-07-09T05:24:05;95376.84;;;26.87
31528;BMP280;10206;48.012;10.030;2023-07-09T05:26:31;95376.28;;;26.94
31528;BMP280;10206;48.012;10.030;2023-07-09T05:28:57;95377.34;;;26.77
31528;BMP280;10206;48.012;10.030;2023-07-09T05:31:23;95373.84;;;27.12
31528;BMP280;10206;48.012;10.030;2023-07-09T05:33:49;95380.41;;;26.91
31528;BMP280;10206;48.012;10.030;2023-07-09T05:36:16;95383.09;;;26.85
31528;BMP280;10206;48.012;10.030;2023-07-09T05:38:45;95374.66;;;26.83
31528;BMP280;10206;48.012;10.030;2023-07-09T05:41:13;95378.69;;;27.10
31528;BMP280;10206;48.012;10.030;2023-07-09T05:43:40;95378.25;;;27.21
31528;BMP280;10206;48.012;10.030;2023-07-09T05:46:06;95375.78;;;27.41
31528;BMP280;10206;48.012;10.030;2023-07-09T05:48:32;95379.88;;;27.76
31528;BMP280;10206;48.012;10.030;2023-07-09T05:50:59;95378.81;;;27.53
31528;BMP280;10206;48.012;10.030;2023-07-09T05:53:25;95381.56;;;27.51
31528;BMP280;10206;48.012;10.030;2023-07-09T05:55:55;95383.50;;;27.82
31528;BMP280;10206;48.012;10.030;2023-07-09T05:58:22;95383.69;;;27.92
31528;BMP280;10206;48.012;10.030;2023-07-09T06:00:52;95389.50;;;28.04
31528;BMP280;10206;48.012;10.030;2023-07-09T06:03:20;95392.69;;;28.31
31528;BMP280;10206;48.012;10.030;2023-07-09T06:05:47;95386.06;;;28.58
31528;BMP280;10206;48.012;10.030;2023-07-09T06:08:16;95388.56;;;28.89
31528;BMP280;10206;48.012;10.030;2023-07-09T06:10:59;95386.91;;;29.28
31528;BMP280;10206;48.012;10.030;2023-07-09T06:13:27;95376.03;;;29.70
31528;BMP280;10206;48.012;10.030;2023-07-09T06:15:54;95383.34;;;30.07
31528;BMP280;10206;48.012;10.030;2023-07-09T06:18:22;95382.09;;;30.26
31528;BMP280;10206;48.012;10.030;2023-07-09T06:20:50;95385.03;;;30.48
31528;BMP280;10206;48.012;10.030;2023-07-09T06:23:17;95378.81;;;30.72
31528;BMP280;10206;48.012;10.030;2023-07-09T06:25:44;95377.44;;;30.85
31528;BMP280;10206;48.012;10.030;2023-07-09T06:28:15;95373.25;;;30.90
31528;BMP280;10206;48.012;10.030;2023-07-09T06:30:41;95380.22;;;30.67
31528;BMP280;10206;48.012;10.030;2023-07-09T06:33:07;95377.47;;;30.89
31528;BMP280;10206;48.012;10.030;2023-07-09T06:35:33;95377.34;;;30.65
31528;BMP280;10206;48.012;10.030;2023-07-09T06:37:59;95386.00;;;31.13
31528;BMP280;10206;48.012;10.030;2023-07-09T06:40:25;95381.09;;;31.25
31528;BMP280;10206;48.012;10.030;2023-07-09T06:42:51;95379.72;;;31.40
31528;BMP280;10206;48.012;10.030;2023-07-09T06:45:18;95386.72;;;31.27
31528;BMP280;10206;48.012;10.030;2023-07-09T06:47:44;95387.44;;;31.34
31528;BMP280;10206;48.012;10.030;2023-07-09T06:50:11;95389.19;;;30.37
31528;BMP280;10206;48.012;10.030;2023-07-09T06:52:37;95384.44;;;30.70
31528;BMP280;10206;48.012;10.030;2023-07-09T06:55:04;95390.81;;;30.82
31528;BMP280;10206;48.012;10.030;2023-07-09T06:57:30;95383.88;;;31.11
31528;BMP280;10206;48.012;10.030;2023-07-09T06:59:56;95384.56;;;31.00
31528;BMP280;10206;48.012;10.030;2023-07-09T07:02:22;95393.81;;;31.58
31528;BMP280;10206;48.012;10.030;2023-07-09T07:04:48;95396.63;;;31.44
31528;BMP280;10206;48.012;10.030;2023-07-09T07:07:15;95392.31;;;30.99
31528;BMP280;10206;48.012;10.030;2023-07-09T07:09:41;95379.72;;;31.56
31528;BMP280;10206;48.012;10.030;2023-07-09T07:12:07;95385.34;;;31.34
31528;BMP280;10206;48.012;10.030;2023-07-09T07:14:33;95389.50;;;30.99
31528;BMP280;10206;48.012;10.030;2023-07-09T07:17:00;95387.50;;;31.54
31528;BMP280;10206;48.012;10.030;2023-07-09T07:19:27;95384.63;;;31.36
31528;BMP280;10206;48.012;10.030;2023-07-09T07:21:53;95382.47;;;31.14
31528;BMP280;10206;48.012;10.030;2023-07-09T07:24:19;95379.66;;;31.24
31528;BMP280;10206;48.012;10.030;2023-07-09T07:26:45;95382.53;;;31.34
31528;BMP280;10206;48.012;10.030;2023-07-09T07:29:11;95380.81;;;30.51
31528;BMP280;10206;48.012;10.030;2023-07-09T07:31:38;95381.69;;;30.90
31528;BMP280;10206;48.012;10.030;2023-07-09T07:34:04;95378.09;;;30.75
31528;BMP280;10206;48.012;10.030;2023-07-09T07:36:30;95380.34;;;31.17
31528;BMP280;10206;48.012;10.030;2023-07-09T07:38:56;95378.25;;;31.27
31528;BMP280;10206;48.012;10.030;2023-07-09T07:41:22;95382.53;;;32.05
31528;BMP280;10206;48.012;10.030;2023-07-09T07:43:48;95383.25;;;31.91
31528;BMP280;10206;48.012;10.030;2023-07-09T07:46:14;95379.72;;;31.90
31528;BMP280;10206;48.012;10.030;2023-07-09T07:48:40;95376.75;;;32.47
31528;BMP280;10206;48.012;10.030;2023-07-09T07:51:06;95375.44;;;32.08
31528;BMP280;10206;48.012;10.030;2023-07-09T07:53:33;95378.19;;;32.52
31528;BMP280;10206;48.012;10.030;2023-07-09T07:55:59;95374.44;;;32.97
31528;BMP280;10206;48.012;10.030;2023-07-09T07:58:28;95376.84;;;32.31
31528;BMP280;10206;48.012;10.030;2023-07-09T08:00:56;95369.66;;;32.60
31528;BMP280;10206;48.012;10.030;2023-07-09T08:03:23;95373.38;;;31.66
31528;BMP280;10206;48.012;10.030;2023-07-09T08:05:50;95363.50;;;31.83
31528;BMP280;10206;48.012;10.030;2023-07-09T08:08:16;95369.00;;;32.45
31528;BMP280;10206;48.012;10.030;2023-07-09T08:10:43;95369.59;;;32.74
31528;BMP280;10206;48.012;10.030;2023-07-09T08:13:10;95363.75;;;33.10
31528;BMP280;10206;48.012;10.030;2023-07-09T08:15:36;95363.47;;;33.48
31528;BMP280;10206;48.012;10.030;2023-07-09T08:18:02;95366.91;;;33.60
31528;BMP280;10206;48.012;10.030;2023-07-09T08:20:28;95367.94;;;34.01
31528;BMP280;10206;48.012;10.030;2023-07-09T08:22:54;95372.94;;;34.01
31528;BMP280;10206;48.012;10.030;2023-07-09T08:25:20;95376.81;;;34.32
31528;BMP280;10206;48.012;10.030;2023-07-09T08:27:47;95372.94;;;33.99
31528;BMP280;10206;48.012;10.030;2023-07-09T08:30:13;95375.63;;;34.13
31528;BMP280;10206;48.012;10.030;2023-07-09T08:32:39;95371.31;;;34.20
31528;BMP280;10206;48.012;10.030;2023-07-09T08:35:05;95369.50;;;33.88
31528;BMP280;10206;48.012;10.030;2023-07-09T08:37:31;95378.25;;;34.31
31528;BMP280;10206;48.012;10.030;2023-07-09T08:39:57;95371.00;;;33.81
31528;BMP280;10206;48.012;10.030;2023-07-09T08:42:31;95369.47;;;33.90
31528;BMP280;10206;48.012;10.030;2023-07-09T08:45:24;95370.16;;;33.95
31528;BMP280;10206;48.012;10.030;2023-07-09T08:50:41;95367.25;;;34.01
31528;BMP280;10206;48.012;10.030;2023-07-09T08:53:20;95368.09;;;33.85
31528;BMP280;10206;48.012;10.030;2023-07-09T08:55:49;95378.00;;;34.53
31528;BMP280;10206;48.012;10.030;2023-07-09T08:58:30;95368.72;;;34.58
31528;BMP280;10206;48.012;10.030;2023-07-09T09:01:06;95375.53;;;34.79
31528;BMP280;10206;48.012;10.030;2023-07-09T09:03:49;95381.97;;;35.25
31528;BMP280;10206;48.012;10.030;2023-07-09T09:06:27;95376.34;;;34.11
31528;BMP280;10206;48.012;10.030;2023-07-09T09:09:28;95372.28;;;33.92
31528;BMP280;10206;48.012;10.030;2023-07-09T09:12:18;95369.66;;;34.39
31528;BMP280;10206;48.012;10.030;2023-07-09T09:14:56;95368.59;;;34.68
31528;BMP280;10206;48.012;10.030;2023-07-09T09:17:25;95372.75;;;34.17
31528;BMP280;10206;48.012;10.030;2023-07-09T09:19:56;95368.03;;;34.58
31528;BMP280;10206;48.012;10.030;2023-07-09T09:22:30;95377.00;;;34.76
31528;BMP280;10206;48.012;10.030;2023-07-09T09:25:03;95374.66;;;34.38
31528;BMP280;10206;48.012;10.030;2023-07-09T09:27:31;95369.22;;;34.73
31528;BMP280;10206;48.012;10.030;2023-07-09T09:29:57;95364.25;;;34.73
31528;BMP280;10206;48.012;10.030;2023-07-09T09:32:30;95370.09;;;35.12
31528;BMP280;10206;48.012;10.030;2023-07-09T09:34:57;95363.22;;;35.44
31528;BMP280;10206;48.012;10.030;2023-07-09T09:37:29;95367.84;;;35.23
31528;BMP280;10206;48.012;10.030;2023-07-09T09:39:56;95374.47;;;35.05
31528;BMP280;10206;48.012;10.030;2023-07-09T09:42:24;95371.41;;;35.21
31528;BMP280;10206;48.012;10.030;2023-07-09T09:44:54;95376.66;;;35.47
31528;BMP280;10206;48.012;10.030;2023-07-09T09:47:21;95369.88;;;35.28
31528;BMP280;10206;48.012;10.030;2023-07-09T09:49:49;95382.16;;;35.57
31528;BMP280;10206;48.012;10.030;2023-07-09T09:52:18;95374.69;;;35.38
31528;BMP280;10206;48.012;10.030;2023-07-09T09:54:50;95383.88;;;35.40
31528;BMP280;10206;48.012;10.030;2023-07-09T09:57:19;95373.53;;;35.21
31528;BMP280;10206;48.012;10.030;2023-07-09T09:59:47;95382.75;;;35.21
31528;BMP280;10206;48.012;10.030;2023-07-09T10:02:20;95377.50;;;34.91
31528;BMP280;10206;48.012;10.030;2023-07-09T10:04:47;95382.44;;;34.92
31528;BMP280;10206;48.012;10.030;2023-07-09T10:07:32;95386.16;;;34.81
31528;BMP280;10206;48.012;10.030;2023-07-09T10:10:02;95388.78;;;34.95
31528;BMP280;10206;48.012;10.030;2023-07-09T10:13:02;95389.34;;;35.54
31528;BMP280;10206;48.012;10.030;2023-07-09T10:15:45;95386.59;;;35.46
31528;BMP280;10206;48.012;10.030;2023-07-09T10:24:16;95390.47;;;35.69
31528;BMP280;10206;48.012;10.030;2023-07-09T10:27:15;95383.72;;;35.04
31528;BMP280;10206;48.012;10.030;2023-07-09T10:35:34;95372.75;;;36.76
31528;BMP280;10206;48.012;10.030;2023-07-09T10:38:52;95375.50;;;36.80
31528;BMP280;10206;48.012;10.030;2023-07-09T10:41:12;95364.69;;;36.20
31528;BMP280;10206;48.012;10.030;2023-07-09T10:43:42;95372.47;;;34.96
31528;BMP280;10206;48.012;10.030;2023-07-09T10:46:22;95377.13;;;36.00
31528;BMP280;10206;48.012;10.030;2023-07-09T10:48:52;95380.78;;;36.33
31528;BMP280;10206;48.012;10.030;2023-07-09T10:54:53;95357.69;;;36.82
31528;BMP280;10206;48.012;10.030;2023-07-09T11:00:17;95362.16;;;37.05
31528;BMP280;10206;48.012;10.030;2023-07-09T11:02:44;95356.94;;;36.16
31528;BMP280;10206;48.012;10.030;2023-07-09T11:05:11;95352.41;;;36.31
31528;BMP280;10206;48.012;10.030;2023-07-09T11:10:19;95348.78;;;36.33
31528;BMP280;10206;48.012;10.030;2023-07-09T11:13:01;95346.47;;;36.74
31528;BMP280;10206;48.012;10.030;2023-07-09T11:15:37;95334.03;;;36.59
31528;BMP280;10206;48.012;10.030;2023-07-09T11:18:10;95344.84;;;36.85
31528;BMP280;10206;48.012;10.030;2023-07-09T11:20:44;95336.13;;;36.60
31528;BMP280;10206;48.012;10.030;2023-07-09T11:23:22;95333.81;;;36.99
31528;BMP280;10206;48.012;10.030;2023-07-09T11:26:01;95331.63;;;37.85
31528;BMP280;10206;48.012;10.030;2023-07-09T11:28:39;95334.97;;;37.10
31528;BMP280;10206;48.012;10.030;2023-07-09T11:31:08;95330.06;;;37.37
31528;BMP280;10206;48.012;10.030;2023-07-09T11:33:44;95329.78;;;38.00
31528;BMP280;10206;48.012;10.030;2023-07-09T11:36:22;95328.53;;;37.40
31528;BMP280;10206;48.012;10.030;2023-07-09T11:38:49;95332.22;;;37.63
31528;BMP280;10206;48.012;10.030;2023-07-09T11:41:40;95342.41;;;36.97
31528;BMP280;10206;48.012;10.030;2023-07-09T11:44:27;95329.75;;;36.90
31528;BMP280;10206;48.012;10.030;2023-07-09T11:52:36;95336.53;;;37.60
31528;BMP280;10206;48.012;10.030;2023-07-09T11:55:42;95333.56;;;37.09
31528;BMP280;10206;48.012;10.030;2023-07-09T11:58:15;95329.59;;;37.27
31528;BMP280;10206;48.012;10.030;2023-07-09T12:00:51;95326.84;;;37.78
31528;BMP280;10206;48.012;10.030;2023-07-09T12:03:20;95333.56;;;37.93
31528;BMP280;10206;48.012;10.030;2023-07-09T12:05:51;95320.41;;;37.79
31528;BMP280;10206;48.012;10.030;2023-07-09T12:08:18;95329.31;;;38.16
31528;BMP280;10206;48.012;10.030;2023-07-09T12:10:46;95324.63;;;37.80
31528;BMP280;10206;48.012;10.030;2023-07-09T12:13:12;95321.84;;;38.52
31528;BMP280;10206;48.012;10.030;2023-07-09T12:15:40;95319.78;;;37.48
31528;BMP280;10206;48.012;10.030;2023-07-09T12:18:14;95323.28;;;37.51
31528;BMP280;10206;48.012;10.030;2023-07-09T12:20:43;95318.44;;;37.98
31528;BMP280;10206;48.012;10.030;2023-07-09T12:23:30;95309.44;;;37.63
31528;BMP280;10206;48.012;10.030;2023-07-09T12:26:00;95320.25;;;37.30
31528;BMP280;10206;48.012;10.030;2023-07-09T12:28:28;95310.41;;;37.25
31528;BMP280;10206;48.012;10.030;2023-07-09T12:30:54;95316.59;;;37.34
31528;BMP280;10206;48.012;10.030;2023-07-09T12:33:26;95312.22;;;37.65
31528;BMP280;10206;48.012;10.030;2023-07-09T12:36:00;95311.22;;;37.50
31528;BMP280;10206;48.012;10.030;2023-07-09T12:38:29;95306.97;;;36.90
31528;BMP280;10206;48.012;10.030;2023-07-09T12:40:56;95298.56;;;36.86
31528;BMP280;10206;48.012;10.030;2023-07-09T12:43:28;95304.91;;;37.17
31528;BMP280;10206;48.012;10.030;2023-07-09T12:46:00;95313.06;;;37.86
31528;BMP280;10206;48.012;10.030;2023-07-09T12:48:29;95297.34;;;37.08
31528;BMP280;10206;48.012;10.030;2023-07-09T12:50:59;95295.47;;;36.66
31528;BMP280;10206;48.012;10.030;2023-07-09T12:53:28;95294.53;;;37.34
31528;BMP280;10206;48.012;10.030;2023-07-09T12:55:59;95297.66;;;37.77
31528;BMP280;10206;48.012;10.030;2023-07-09T12:58:31;95297.28;;;37.89
31528;BMP280;10206;48.012;10.030;2023-07-09T13:01:00;95300.78;;;37.41
31528;BMP280;10206;48.012;10.030;2023-07-09T13:03:32;95283.63;;;37.43
31528;BMP280;10206;48.012;10.030;2023-07-09T13:06:02;95290.31;;;37.03
31528;BMP280;10206;48.012;10.030;2023-07-09T13:08:31;95283.56;;;37.18
31528;BMP280;10206;48.012;10.030;2023-07-09T13:10:59;95287.91;;;36.22
31528;BMP280;10206;48.012;10.030;2023-07-09T13:13:25;95282.69;;;36.32
31528;BMP280;10206;48.012;10.030;2023-07-09T13:15:57;95286.25;;;36.96
31528;BMP280;10206;48.012;10.030;2023-07-09T13:18:25;95283.28;;;37.28
31528;BMP280;10206;48.012;10.030;2023-07-09T13:20:52;95278.81;;;37.35
31528;BMP280;10206;48.012;10.030;2023-07-09T13:23:25;95276.41;;;37.72
31528;BMP280;10206;48.012;10.030;2023-07-09T13:25:52;95274.50;;;37.89
31528;BMP280;10206;48.012;10.030;2023-07-09T13:28:29;95276.81;;;37.83
31528;BMP280;10206;48.012;10.030;2023-07-09T13:31:11;95276.38;;;37.21
31528;BMP280;10206;48.012;10.030;2023-07-09T13:33:39;95272.97;;;37.68
31528;BMP280;10206;48.012;10.030;2023-07-09T13:36:05;95270.28;;;37.88
31528;BMP280;10206;48.012;10.030;2023-07-09T13:38:32;95271.50;;;37.95
31528;BMP280;10206;48.012;10.030;2023-07-09T13:41:09;95270.03;;;37.96
31528;BMP280;10206;48.012;10.030;2023-07-09T13:43:37;95265.38;;;38.09
31528;BMP280;10206;48.012;10.030;2023-07-09T13:46:06;95260.19;;;37.91
31528;BMP280;10206;48.012;10.030;2023-07-09T13:48:34;95256.31;;;37.25
31528;BMP280;10206;48.012;10.030;2023-07-09T13:51:00;95247.88;;;36.64
31528;BMP280;10206;48.012;10.030;2023-07-09T13:53:31;95257.78;;;36.96
31528;BMP280;10206;48.012;10.030;2023-07-09T13:55:58;95252.66;;;37.02
31528;BMP280;10206;48.012;10.030;2023-07-09T13:58:26;95255.75;;;37.19
31528;BMP280;10206;48.012;10.030;2023-07-09T14:00:59;95254.00;;;37.32
31528;BMP280;10206;48.012;10.030;2023-07-09T14:03:31;95256.09;;;37.33
31528;BMP280;10206;48.012;10.030;2023-07-09T14:05:59;95250.63;;;37.25
31528;BMP280;10206;48.012;10.030;2023-07-09T14:08:26;95249.44;;;37.43
31528;BMP280;10206;48.012;10.030;2023-07-09T14:10:52;95258.03;;;37.14
31528;BMP280;10206;48.012;10.030;2023-07-09T14:13:23;95254.16;;;36.97
31528;BMP280;10206;48.012;10.030;2023-07-09T14:15:49;95239.66;;;36.50
31528;BMP280;10206;48.012;10.030;2023-07-09T14:18:22;95246.56;;;36.59
31528;BMP280;10206;48.012;10.030;2023-07-09T14:20:50;95240.53;;;36.43
31528;BMP280;10206;48.012;10.030;2023-07-09T14:23:17;95247.22;;;36.62
31528;BMP280;10206;48.012;10.030;2023-07-09T14:25:45;95240.94;;;36.57
31528;BMP280;10206;48.012;10.030;2023-07-09T14:28:18;95237.94;;;36.63
31528;BMP280;10206;48.012;10.030;2023-07-09T14:30:44;95247.34;;;36.23
31528;BMP280;10206;48.012;10.030;2023-07-09T14:33:16;95240.19;;;36.26
31528;BMP280;10206;48.012;10.030;2023-07-09T14:35:43;95227.53;;;36.52
31528;BMP280;10206;48.012;10.030;2023-07-09T14:38:24;95235.97;;;36.86
31528;BMP280;10206;48.012;10.030;2023-07-09T14:40:53;95235.03;;;36.65